Aérodrome :
LOGIN :

S'inscrire | Disclaimer

   EN    FR    IT 

 










Légende :    VFR   VFR Marginal   IFR   IFR Intensif   IFR Très Intensif
Visi : 
Plafond : 
>= 8 km
>= 3000ft
5 à 8 km
1000 à 3000 ft
1500m à 5 km
500 à 1000 ft
800 à 1500m
200 à 500 ft
< 800m
< 200 ft
Symboles :   Orages  Brouillard  Fortes neiges  Fortes précipitations  Vent > 20 kt
SIGMETs :   Divers  Orages  Givrage  Turbulence  Onde Orograph.  Cendres Volcan.







- Altitude de l'aérodrome : 56 ft
- Code IATA : BZR
- Voir les cartes d'approche


LFMU - Beziers / Vias

DERNIER METAR :
  • 222130Z AUTO 05003KT 7000 NSC 17/15 Q1016

METARs EXPIRÉS :
  • 222100Z AUTO VRB02KT 9000 NSC 17/15 Q1016
  • 222030Z AUTO 08004KT 9999 ///TCU 18/16 Q1015 BECMG FEW040 BKN110
  • 222000Z AUTO 06003KT 020V090 9999 ///TCU 18/16 Q1015 BECMG FEW040 BKN110
  • 221930Z AUTO 06004KT 9999 FEW009/// BKN064/// BKN076/// ///CB 18/16 Q1015 BECMG FEW040 BKN110
  • 221900Z AUTO 05004KT 9999 ///TCU 18/17 Q1014 BECMG FEW040 BKN110
  • 221830Z AUTO 04005KT 9999 -RA FEW037/// BKN076/// BKN090/// ///TCU 19/17 Q1014 BECMG FEW040 BKN110

TAF AMD TAF LFMU
Valide du 22 à 17h jusqu'au 23 à 15h UTC


221705Z 2217/2315 05008KT 9999 FEW040 BKN110
TEMPO 2217/2218 TS FEW035CB BKN100
TEMPO 2300/2308 4000 BR
BECMG 2308/2310 15010KT
ATIS : +33 4 67 90 88 88
Pas de NOTAMs connus pour ce terrain.
1 SIGMET publié pour la FIR Marseille (LFMM) :
 
Orages noyés dans la masse
LFMM SIGMET 5 VALID 222000/222200 LFPW
LFMM MARSEILLE FIR/UIR EMBD TS OBS WI N4630 E00415 - N4630 E00515 - N4500 E00530 - N4500 E00445 - N4630 E00415 TOP FL320 MOV E 10KT NC=



MET'MAP, la Météo Aéronautique d'un coup d'oeil ! - Copyright ORBIFLY Décembre 2007 - Disclaimer

ORBIFLY MET'MAP TEAM :

Programmation & Développement : Alexandra Zaïnal
Conception & Développement : Baudouin d'Aumeries
Co-Programmation & Développement : Marc-Olivier Méhu
Soutien technique & logistique : Manuel Goepfert

Contact : metmap@orbifly.com




SOURCES & CREDITS :

   NOAA